createdAt,value
2023-01-10T00:00:14.422Z,3.5
2023-01-10T00:01:20.726Z,3.5
2023-01-10T00:02:26.970Z,3.5
2023-01-10T00:03:33.245Z,3.5
2023-01-10T00:04:39.504Z,3.5
2023-01-10T00:05:45.804Z,3.4
2023-01-10T00:06:52.058Z,3.4
2023-01-10T00:07:58.321Z,3.4
2023-01-10T00:09:04.592Z,3.4
2023-01-10T00:10:10.871Z,3.4
2023-01-10T00:11:16.158Z,3.4
2023-01-10T00:12:22.426Z,3.4
2023-01-10T00:13:28.697Z,3.4
2023-01-10T00:14:34.970Z,3.4
2023-01-10T00:15:41.242Z,3.4
2023-01-10T00:16:47.514Z,3.4
2023-01-10T00:17:53.794Z,3.3
2023-01-10T00:18:59.089Z,3.3
2023-01-10T00:20:04.380Z,3.3
2023-01-10T00:21:10.645Z,3.3
2023-01-10T00:22:15.938Z,3.3
2023-01-10T00:23:21.292Z,3.2
2023-01-10T00:24:27.509Z,3.2
2023-01-10T00:25:33.784Z,3.2
2023-01-10T00:26:40.078Z,3.1
2023-01-10T00:27:46.339Z,3.2
2023-01-10T00:28:52.597Z,3.1
2023-01-10T00:29:58.946Z,3.1
2023-01-10T00:31:05.139Z,3.1
2023-01-10T00:32:11.411Z,3.1
2023-01-10T00:33:17.687Z,3.1
2023-01-10T00:34:23.968Z,3.1
2023-01-10T00:35:30.301Z,3.1
2023-01-10T00:36:36.507Z,3
2023-01-10T00:37:41.791Z,3
2023-01-10T00:38:48.062Z,3
2023-01-10T00:39:54.334Z,3
2023-01-10T00:41:00.600Z,2.9
2023-01-10T00:42:06.877Z,2.9
2023-01-10T00:43:13.150Z,2.9
2023-01-10T00:44:19.423Z,2.9
2023-01-10T00:45:24.724Z,2.9
2023-01-10T00:46:30.020Z,2.9
2023-01-10T00:47:35.324Z,2.9
2023-01-10T00:48:40.596Z,2.9
2023-01-10T00:49:46.871Z,2.9
2023-01-10T00:50:53.154Z,2.9
2023-01-10T00:51:59.423Z,2.9
2023-01-10T00:53:05.695Z,2.9
2023-01-10T00:54:11.984Z,2.9
2023-01-10T00:55:18.225Z,2.9
2023-01-10T00:56:24.505Z,2.9
2023-01-10T00:57:30.787Z,2.9
2023-01-10T00:58:37.049Z,2.9
2023-01-10T00:59:43.326Z,2.9
2023-01-10T01:00:49.602Z,2.9
2023-01-10T01:01:55.864Z,2.9
2023-01-10T01:03:01.146Z,2.9
2023-01-10T01:04:07.426Z,2.9
2023-01-10T01:05:13.721Z,2.9
2023-01-10T01:06:20.058Z,2.9
2023-01-10T01:07:26.247Z,2.9
2023-01-10T01:08:32.534Z,2.9
2023-01-10T01:09:38.787Z,2.9
2023-01-10T01:10:45.064Z,3
2023-01-10T01:11:51.355Z,3
2023-01-10T01:12:57.607Z,3
2023-01-10T01:14:03.883Z,3
2023-01-10T01:15:10.149Z,3
2023-01-10T01:16:16.435Z,3
2023-01-10T01:17:21.712Z,3
2023-01-10T01:18:27.991Z,3
2023-01-10T01:19:34.250Z,3
2023-01-10T01:20:40.536Z,3
2023-01-10T01:21:46.800Z,3
2023-01-10T01:22:53.070Z,3
2023-01-10T01:23:59.493Z,3
2023-01-10T01:25:05.630Z,3
2023-01-10T01:26:11.880Z,3
2023-01-10T01:27:18.166Z,3
2023-01-10T01:28:24.440Z,3
2023-01-10T01:29:30.706Z,3
2023-01-10T01:30:36.997Z,3
2023-01-10T01:31:42.258Z,3
2023-01-10T01:32:48.538Z,3
2023-01-10T01:33:54.809Z,3
2023-01-10T01:35:01.095Z,3
2023-01-10T01:36:07.354Z,3
2023-01-10T01:37:13.629Z,3
2023-01-10T01:38:19.899Z,3
2023-01-10T01:39:26.201Z,3
2023-01-10T01:40:32.460Z,3
2023-01-10T01:41:38.732Z,2.9
2023-01-10T01:42:44.015Z,3
2023-01-10T01:43:49.299Z,3
2023-01-10T01:44:54.605Z,3
2023-01-10T01:45:59.886Z,3
2023-01-10T01:47:06.152Z,3
2023-01-10T01:48:12.443Z,3
2023-01-10T01:49:18.708Z,3
2023-01-10T01:50:25.038Z,3
2023-01-10T01:51:31.270Z,3
2023-01-10T01:52:37.524Z,3
2023-01-10T01:53:43.796Z,3
2023-01-10T01:54:50.067Z,3
2023-01-10T01:55:56.332Z,3
2023-01-10T01:58:08.886Z,3
2023-01-10T01:59:15.156Z,3
2023-01-10T02:00:20.450Z,3
2023-01-10T02:01:26.720Z,3
2023-01-10T02:02:32.992Z,3
2023-01-10T02:03:39.433Z,3
2023-01-10T02:04:45.530Z,3
2023-01-10T02:05:51.802Z,3
2023-01-10T02:06:58.143Z,3
2023-01-10T02:08:04.358Z,3
2023-01-10T02:09:09.665Z,3
2023-01-10T02:10:15.001Z,3.1
2023-01-10T02:11:20.306Z,3.1
2023-01-10T02:12:25.543Z,3.1
2023-01-10T02:13:31.799Z,3.1
2023-01-10T02:14:38.139Z,3.1
2023-01-10T02:15:44.335Z,3.1
2023-01-10T02:16:50.612Z,3.1
2023-01-10T02:17:56.896Z,3.1
2023-01-10T02:19:03.160Z,3.1
2023-01-10T02:20:09.430Z,3.1
2023-01-10T02:21:15.696Z,3.1
2023-01-10T02:22:22.009Z,3.1
2023-01-10T02:23:28.259Z,3.1
2023-01-10T02:24:34.516Z,3.1
2023-01-10T02:25:40.781Z,3.1
2023-01-10T02:26:46.077Z,3.1
2023-01-10T02:27:52.356Z,3.2
2023-01-10T02:28:58.627Z,3.2
2023-01-10T02:30:04.900Z,3.2
2023-01-10T02:31:11.164Z,3.2
2023-01-10T02:32:17.440Z,3.2
2023-01-10T02:33:23.715Z,3.2
2023-01-10T02:34:29.016Z,3.2
2023-01-10T02:35:34.317Z,3.2
2023-01-10T02:36:40.569Z,3.2
2023-01-10T02:37:45.878Z,3.2
2023-01-10T02:38:51.172Z,3.2
2023-01-10T02:39:57.434Z,3.2
2023-01-10T02:41:03.760Z,3.2
2023-01-10T02:42:09.988Z,3.2
2023-01-10T02:43:16.247Z,3.2
2023-01-10T02:44:22.508Z,3.2
2023-01-10T02:45:28.801Z,3.2
2023-01-10T02:46:35.064Z,3.2
2023-01-10T02:47:41.396Z,3.2
2023-01-10T02:48:47.612Z,3.2
2023-01-10T02:49:53.883Z,3.2
2023-01-10T02:51:00.155Z,3.2
2023-01-10T02:52:06.433Z,3.2
2023-01-10T02:53:11.712Z,3.2
2023-01-10T02:54:17.987Z,3.2
2023-01-10T02:55:24.263Z,3.2
2023-01-10T02:56:30.549Z,3.2
2023-01-10T02:57:36.827Z,3.2
2023-01-10T02:58:43.089Z,3.2
2023-01-10T02:59:49.401Z,3.2
2023-01-10T03:00:54.644Z,3.2
2023-01-10T03:01:59.946Z,3.2
2023-01-10T03:03:06.271Z,3.2
2023-01-10T03:04:12.483Z,3.2
2023-01-10T03:05:18.753Z,3.2
2023-01-10T03:06:24.052Z,3.2
2023-01-10T03:07:29.361Z,3.2
2023-01-10T03:08:35.612Z,3.2
2023-01-10T03:09:41.885Z,3.2
2023-01-10T03:10:48.153Z,3.2
2023-01-10T03:11:54.418Z,3.1
2023-01-10T03:13:00.698Z,3.1
2023-01-10T03:14:06.978Z,3.1
2023-01-10T03:15:12.271Z,3.1
2023-01-10T03:16:18.537Z,3.1
2023-01-10T03:17:24.824Z,3.1
2023-01-10T03:18:31.079Z,3.1
2023-01-10T03:19:37.352Z,3
2023-01-10T03:20:43.623Z,3
2023-01-10T03:21:49.900Z,3
2023-01-10T03:22:56.173Z,3
2023-01-10T03:24:02.444Z,3
2023-01-10T03:25:08.709Z,3
2023-01-10T03:26:14.983Z,3
2023-01-10T03:27:21.257Z,3
2023-01-10T03:28:27.527Z,3
2023-01-10T03:29:32.848Z,2.9
2023-01-10T03:30:38.129Z,3
2023-01-10T03:31:43.426Z,2.9
2023-01-10T03:32:48.698Z,3
2023-01-10T03:33:54.984Z,2.9
2023-01-10T03:35:01.254Z,3
2023-01-10T03:36:07.516Z,2.9
2023-01-10T03:37:13.803Z,2.9
2023-01-10T03:38:20.113Z,2.9
2023-01-10T03:39:26.337Z,2.9
2023-01-10T03:40:32.610Z,2.9
2023-01-10T03:41:38.892Z,2.9
2023-01-10T03:42:45.148Z,2.9
2023-01-10T03:43:51.421Z,2.9
2023-01-10T03:44:57.696Z,2.9
2023-01-10T03:46:03.967Z,2.9
2023-01-10T03:47:09.276Z,2.9
2023-01-10T03:48:15.541Z,3
2023-01-10T03:49:21.807Z,2.9
2023-01-10T03:50:28.155Z,2.9
2023-01-10T03:51:34.349Z,2.9
2023-01-10T03:52:40.621Z,3
2023-01-10T03:53:46.888Z,3
2023-01-10T03:54:52.190Z,3
2023-01-10T03:55:57.471Z,3
2023-01-10T03:57:02.783Z,3
2023-01-10T03:58:08.079Z,3
2023-01-10T03:59:14.327Z,3
2023-01-10T04:00:20.617Z,2.9
2023-01-10T04:01:26.884Z,2.9
2023-01-10T04:02:33.155Z,2.9
2023-01-10T04:03:39.423Z,2.9
2023-01-10T04:04:45.762Z,2.9
2023-01-10T04:05:51.972Z,2.9
2023-01-10T04:06:58.255Z,2.9
2023-01-10T04:08:04.521Z,2.9
2023-01-10T04:09:10.780Z,2.9
2023-01-10T04:10:17.056Z,2.9
2023-01-10T04:11:23.335Z,2.9
2023-01-10T04:12:28.622Z,2.9
2023-01-10T04:13:34.895Z,2.9
2023-01-10T04:14:41.166Z,2.9
2023-01-10T04:15:47.435Z,2.9
2023-01-10T04:16:53.709Z,2.9
2023-01-10T04:17:59.977Z,2.9
2023-01-10T04:19:06.255Z,2.9
2023-01-10T04:20:11.573Z,2.9
2023-01-10T04:21:16.849Z,2.9
2023-01-10T04:22:23.118Z,2.9
2023-01-10T04:23:28.516Z,2.9
2023-01-10T04:24:33.729Z,2.9
2023-01-10T04:25:39.984Z,2.9
2023-01-10T04:26:46.251Z,2.9
2023-01-10T04:27:52.560Z,2.9
2023-01-10T04:28:58.786Z,2.9
2023-01-10T04:30:05.068Z,2.9
2023-01-10T04:31:11.342Z,2.9
2023-01-10T04:32:17.607Z,2.9
2023-01-10T04:33:23.879Z,2.9
2023-01-10T04:34:30.155Z,2.9
2023-01-10T04:35:36.430Z,2.9
2023-01-10T04:36:42.696Z,2.9
2023-01-10T04:37:48.966Z,2.9
2023-01-10T04:38:54.255Z,2.9
2023-01-10T04:40:00.548Z,2.9
2023-01-10T04:41:06.803Z,2.9
2023-01-10T04:42:13.079Z,2.9
2023-01-10T04:43:19.356Z,2.9
2023-01-10T04:44:25.622Z,2.9
2023-01-10T04:45:31.891Z,2.9
2023-01-10T04:46:37.185Z,2.9
2023-01-10T04:47:42.475Z,2.9
2023-01-10T04:48:48.741Z,2.9
2023-01-10T04:49:55.019Z,2.9
2023-01-10T04:51:01.290Z,2.9
2023-01-10T04:52:07.561Z,2.9
2023-01-10T04:53:13.850Z,2.9
2023-01-10T04:54:20.112Z,2.9
2023-01-10T04:55:26.382Z,3
2023-01-10T04:56:32.666Z,2.9
2023-01-10T04:57:38.919Z,3
2023-01-10T04:58:45.203Z,3
2023-01-10T04:59:51.478Z,3
2023-01-10T05:00:57.731Z,3
2023-01-10T05:02:03.011Z,3
2023-01-10T05:03:09.303Z,3
2023-01-10T05:04:15.582Z,3
2023-01-10T05:05:21.848Z,3
2023-01-10T05:06:28.129Z,3
2023-01-10T05:07:34.429Z,3
2023-01-10T05:08:40.663Z,3
2023-01-10T05:09:45.960Z,3
2023-01-10T05:10:51.262Z,3
2023-01-10T05:11:56.551Z,3
2023-01-10T05:13:01.873Z,3
2023-01-10T05:14:08.178Z,3
2023-01-10T05:15:14.401Z,3.1
2023-01-10T05:16:20.658Z,3.1
2023-01-10T05:17:26.925Z,3.1
2023-01-10T05:18:33.204Z,3.1
2023-01-10T05:19:38.498Z,3.1
2023-01-10T05:20:43.791Z,3.1
2023-01-10T05:21:50.074Z,3.1
2023-01-10T05:22:56.327Z,3.1
2023-01-10T05:24:02.600Z,3.1
2023-01-10T05:25:08.877Z,3.1
2023-01-10T05:26:15.163Z,3.2
2023-01-10T05:27:21.424Z,3.2
2023-01-10T05:28:27.686Z,3.2
2023-01-10T05:29:33.961Z,3.2
2023-01-10T05:30:40.241Z,3.3
2023-01-10T05:32:52.776Z,3.3
2023-01-10T05:33:59.058Z,3.3
2023-01-10T05:35:04.340Z,3.3
2023-01-10T05:36:10.614Z,3.3
2023-01-10T05:37:16.878Z,3.4
2023-01-10T05:38:23.166Z,3.4
2023-01-10T05:39:29.447Z,3.4
2023-01-10T05:40:35.713Z,3.5
2023-01-10T05:41:41.967Z,3.5
2023-01-10T05:42:48.241Z,3.5
2023-01-10T05:43:53.553Z,3.5
2023-01-10T05:44:58.867Z,3.5
2023-01-10T05:46:04.134Z,3.5
2023-01-10T05:47:09.422Z,3.5
2023-01-10T05:48:15.711Z,3.5
2023-01-10T05:49:21.967Z,3.5
2023-01-10T05:50:28.351Z,3.5
2023-01-10T05:51:34.528Z,3.5
2023-01-10T05:52:40.787Z,3.5
2023-01-10T05:53:47.153Z,3.5
2023-01-10T05:54:53.362Z,3.6
2023-01-10T05:55:59.754Z,3.5
2023-01-10T05:57:05.911Z,3.6
2023-01-10T05:58:12.149Z,3.6
2023-01-10T05:59:18.420Z,3.6
2023-01-10T06:00:24.686Z,3.6
2023-01-10T06:01:30.001Z,3.6
2023-01-10T06:02:36.242Z,3.6
2023-01-10T06:03:42.520Z,3.6
2023-01-10T06:04:48.809Z,3.6
2023-01-10T06:05:55.130Z,3.5
2023-01-10T06:07:01.468Z,3.6
2023-01-10T06:08:07.608Z,3.6
2023-01-10T06:09:13.889Z,3.6
2023-01-10T06:10:20.152Z,3.6
2023-01-10T06:11:26.584Z,3.6
2023-01-10T06:12:32.795Z,3.6
2023-01-10T06:13:39.055Z,3.6
2023-01-10T06:14:45.241Z,3.6
2023-01-10T06:15:50.533Z,3.6
2023-01-10T06:16:56.813Z,3.6
2023-01-10T06:18:03.068Z,3.6
2023-01-10T06:19:09.353Z,3.6
2023-01-10T06:20:15.629Z,3.6
2023-01-10T06:21:21.906Z,3.6
2023-01-10T06:22:28.169Z,3.6
2023-01-10T06:23:34.433Z,3.7
2023-01-10T06:24:40.708Z,3.7
2023-01-10T06:25:46.996Z,3.7
2023-01-10T06:26:53.294Z,3.6
2023-01-10T06:27:59.576Z,3.6
2023-01-10T06:29:05.799Z,3.6
2023-01-10T06:30:11.097Z,3.6
2023-01-10T06:31:17.420Z,3.6
2023-01-10T06:32:23.690Z,3.6
2023-01-10T06:33:29.905Z,3.6
2023-01-10T06:34:36.170Z,3.6
2023-01-10T06:35:42.446Z,3.6
2023-01-10T06:36:48.764Z,3.6
2023-01-10T06:39:01.346Z,3.7
2023-01-10T06:40:07.776Z,3.7
2023-01-10T06:41:13.843Z,3.7
2023-01-10T06:42:20.075Z,3.7
2023-01-10T06:43:26.356Z,3.6
2023-01-10T06:44:31.640Z,3.6
2023-01-10T06:45:37.914Z,3.7
2023-01-10T06:46:44.289Z,3.6
2023-01-10T06:47:50.476Z,3.6
2023-01-10T06:48:56.783Z,3.6
2023-01-10T06:50:03.004Z,3.6
2023-01-10T06:51:09.285Z,3.6
2023-01-10T06:52:15.552Z,3.5
2023-01-10T06:53:21.822Z,3.5
2023-01-10T06:54:28.099Z,3.5
2023-01-10T06:55:34.411Z,3.5
2023-01-10T06:56:39.747Z,3.5
2023-01-10T06:57:45.933Z,3.5
2023-01-10T06:58:52.304Z,3.5
2023-01-10T06:59:58.473Z,3.5
2023-01-10T07:01:04.911Z,3.5
2023-01-10T07:02:11.250Z,3.5
2023-01-10T07:03:17.289Z,3.5
2023-01-10T07:04:23.563Z,3.5
2023-01-10T07:05:29.842Z,3.5
2023-01-10T07:06:36.133Z,3.5
2023-01-10T07:07:42.393Z,3.5
2023-01-10T07:08:48.708Z,3.5
2023-01-10T07:09:54.932Z,3.5
2023-01-10T07:11:00.228Z,3.5
2023-01-10T07:12:06.488Z,3.5
2023-01-10T07:13:12.818Z,3.5
2023-01-10T07:14:19.067Z,3.5
2023-01-10T07:15:25.311Z,3.5
2023-01-10T07:16:31.579Z,3.5
2023-01-10T07:17:37.904Z,3.5
2023-01-10T07:18:44.144Z,3.5
2023-01-10T07:19:50.390Z,3.6
2023-01-10T07:20:56.679Z,3.6
2023-01-10T07:22:02.987Z,3.6
2023-01-10T07:23:09.235Z,3.6
2023-01-10T07:24:15.491Z,3.6
2023-01-10T07:25:20.782Z,3.6
2023-01-10T07:26:27.088Z,3.6
2023-01-10T07:27:33.322Z,3.6
2023-01-10T07:28:39.593Z,3.6
2023-01-10T07:29:45.968Z,3.6
2023-01-10T07:30:52.141Z,3.6
2023-01-10T07:31:58.413Z,3.6
2023-01-10T07:33:04.702Z,3.6
2023-01-10T07:34:10.989Z,3.6
2023-01-10T07:35:17.231Z,3.6
2023-01-10T07:36:23.517Z,3.6
2023-01-10T07:37:29.811Z,3.6
2023-01-10T07:38:36.111Z,3.6
2023-01-10T07:39:41.335Z,3.6
2023-01-10T07:40:47.601Z,3.6
2023-01-10T07:41:53.873Z,3.6
2023-01-10T07:43:00.155Z,3.6
2023-01-10T07:45:11.722Z,3.6
2023-01-10T07:46:17.095Z,3.6
2023-01-10T07:47:22.315Z,3.6
2023-01-10T07:48:28.608Z,3.6
2023-01-10T07:49:33.891Z,3.6
2023-01-10T07:50:39.175Z,3.6
2023-01-10T07:51:45.444Z,3.6
2023-01-10T07:52:51.706Z,3.6
2023-01-10T07:53:57.988Z,3.6
2023-01-10T07:55:04.362Z,3.6
2023-01-10T07:56:10.539Z,3.6
2023-01-10T07:57:16.809Z,3.6
2023-01-10T07:58:23.135Z,3.6
2023-01-10T07:59:29.371Z,3.6
2023-01-10T08:00:35.632Z,3.5
2023-01-10T08:01:41.895Z,3.6
2023-01-10T08:02:48.167Z,3.6
2023-01-10T08:03:54.494Z,3.6
2023-01-10T08:04:59.780Z,3.6
2023-01-10T08:06:06.067Z,3.6
2023-01-10T08:07:12.322Z,3.6
2023-01-10T08:08:18.568Z,3.6
2023-01-10T08:09:25.032Z,3.6
2023-01-10T08:10:31.140Z,3.6
2023-01-10T08:11:37.358Z,3.6
2023-01-10T08:12:42.665Z,3.6
2023-01-10T08:13:48.991Z,3.7
2023-01-10T08:14:54.232Z,3.7
2023-01-10T08:15:59.556Z,3.7
2023-01-10T08:17:05.830Z,3.7
2023-01-10T08:18:12.139Z,3.7
2023-01-10T08:19:18.357Z,3.7
2023-01-10T08:20:24.662Z,3.7
2023-01-10T08:21:30.883Z,3.7
2023-01-10T08:22:37.208Z,3.7
2023-01-10T08:23:43.427Z,3.7
2023-01-10T08:24:49.704Z,3.7
2023-01-10T08:25:55.977Z,3.7
2023-01-10T08:27:02.248Z,3.7
2023-01-10T08:28:08.526Z,3.7
2023-01-10T08:29:14.793Z,3.7
2023-01-10T08:30:20.129Z,3.7
2023-01-10T08:31:26.412Z,3.7
2023-01-10T08:32:32.679Z,3.7
2023-01-10T08:33:38.900Z,3.7
2023-01-10T08:34:45.167Z,3.7
2023-01-10T08:35:51.445Z,3.7
2023-01-10T08:36:57.714Z,3.7
2023-01-10T08:38:03.013Z,3.7
2023-01-10T08:39:08.304Z,3.7
2023-01-10T08:40:13.614Z,3.7
2023-01-10T08:41:18.907Z,3.7
2023-01-10T08:42:25.213Z,3.7
2023-01-10T08:43:31.436Z,3.7
2023-01-10T08:44:37.712Z,3.8
2023-01-10T08:45:43.982Z,3.8
2023-01-10T08:46:50.352Z,3.8
2023-01-10T08:47:56.558Z,3.8
2023-01-10T08:49:02.804Z,3.9
2023-01-10T08:50:09.078Z,3.9
2023-01-10T08:51:15.338Z,3.9
2023-01-10T08:52:21.642Z,3.9
2023-01-10T08:53:27.920Z,3.9
2023-01-10T08:54:34.163Z,4
2023-01-10T08:55:39.450Z,4
2023-01-10T08:56:45.728Z,4
2023-01-10T08:57:52.000Z,4
2023-01-10T08:58:58.299Z,4
2023-01-10T09:00:04.539Z,4
2023-01-10T09:01:10.876Z,4
2023-01-10T09:02:17.083Z,4
2023-01-10T09:03:22.394Z,4
2023-01-10T09:04:27.674Z,4
2023-01-10T09:05:32.977Z,4
2023-01-10T09:06:38.276Z,4
2023-01-10T09:07:44.636Z,4
2023-01-10T09:08:50.902Z,3.9
2023-01-10T09:09:57.222Z,3.9
2023-01-10T09:11:03.360Z,3.9
2023-01-10T09:12:09.682Z,3.9
2023-01-10T09:13:15.945Z,4
2023-01-10T09:14:22.225Z,4
2023-01-10T09:15:28.553Z,4
2023-01-10T09:16:34.874Z,4
2023-01-10T09:17:41.062Z,4.1
2023-01-10T09:18:47.272Z,4.1
2023-01-10T09:19:53.535Z,4.1
2023-01-10T09:20:58.817Z,4.1
2023-01-10T09:22:05.092Z,4.1
2023-01-10T09:23:11.360Z,4.1
2023-01-10T09:24:17.721Z,4.1
2023-01-10T09:25:24.006Z,4.1
2023-01-10T09:26:30.317Z,4.1
2023-01-10T09:27:36.484Z,4.1
2023-01-10T09:28:41.883Z,4.1
2023-01-10T09:29:47.144Z,4.2
2023-01-10T09:30:52.351Z,4.2
2023-01-10T09:31:57.626Z,4.2
2023-01-10T09:33:03.921Z,4.2
2023-01-10T09:34:10.249Z,4.2
2023-01-10T09:35:16.446Z,4.2
2023-01-10T09:36:22.806Z,4.2
2023-01-10T09:37:29.066Z,4.2
2023-01-10T09:38:35.290Z,4.2
2023-01-10T09:39:41.538Z,4.2
2023-01-10T09:40:47.811Z,4.2
2023-01-10T09:41:54.094Z,4.2
2023-01-10T09:43:00.350Z,4.2
2023-01-10T09:44:06.640Z,4.2
2023-01-10T09:45:12.939Z,4.2
2023-01-10T09:46:18.187Z,4.2
2023-01-10T09:47:24.480Z,4.2
2023-01-10T09:48:30.729Z,4.2
2023-01-10T09:49:37.082Z,4.2
2023-01-10T09:50:43.304Z,4.2
2023-01-10T09:51:49.641Z,4.2
2023-01-10T09:52:55.839Z,4.2
2023-01-10T09:54:02.096Z,4.2
2023-01-10T09:55:08.552Z,4.2
2023-01-10T09:56:14.776Z,4.2
2023-01-10T09:57:21.072Z,4.2
2023-01-10T09:58:27.342Z,4.2
2023-01-10T09:59:33.597Z,4.2
2023-01-10T10:00:38.845Z,4.2
2023-01-10T10:01:44.045Z,4.2
2023-01-10T10:02:49.341Z,4.2
2023-01-10T10:03:54.630Z,4.2
2023-01-10T10:05:00.904Z,4.2
2023-01-10T10:06:07.180Z,4.2
2023-01-10T10:07:13.445Z,4.1
2023-01-10T10:08:19.719Z,4.1
2023-01-10T10:09:25.994Z,4.1
2023-01-10T10:10:32.267Z,4.2
2023-01-10T10:11:38.529Z,4.2
2023-01-10T10:12:44.813Z,4.1
2023-01-10T10:13:51.085Z,4.1
2023-01-10T10:14:57.356Z,4.1
2023-01-10T10:16:03.626Z,4.1
2023-01-10T10:17:09.895Z,4.1
2023-01-10T10:18:15.203Z,4.1
2023-01-10T10:19:21.465Z,4.1
2023-01-10T10:20:27.749Z,4.1
2023-01-10T10:21:34.001Z,4.1
2023-01-10T10:22:40.280Z,4.1
2023-01-10T10:23:46.614Z,4.1
2023-01-10T10:24:52.850Z,4.2
2023-01-10T10:25:59.096Z,4.2
2023-01-10T10:27:05.372Z,4.2
2023-01-10T10:28:11.636Z,4.2
2023-01-10T10:29:18.078Z,4.2
2023-01-10T10:30:24.184Z,4.2
2023-01-10T10:31:30.469Z,4.2
2023-01-10T10:32:35.740Z,4.1
2023-01-10T10:33:42.019Z,4.1
2023-01-10T10:34:48.289Z,4.1
2023-01-10T10:35:54.559Z,4.1
2023-01-10T10:36:59.861Z,4
2023-01-10T10:38:05.155Z,4
2023-01-10T10:39:10.448Z,4
2023-01-10T10:40:15.745Z,3.9
2023-01-10T10:41:22.014Z,3.9
2023-01-10T10:42:28.286Z,3.9
2023-01-10T10:43:34.557Z,3.9
2023-01-10T10:44:40.836Z,3.9
2023-01-10T10:45:47.106Z,4
2023-01-10T10:46:53.377Z,4
2023-01-10T10:47:59.666Z,4
2023-01-10T10:49:06.006Z,4.1
2023-01-10T10:50:12.295Z,4.1
2023-01-10T10:51:18.455Z,4.1
2023-01-10T10:52:24.752Z,4.2
2023-01-10T10:53:31.138Z,4.2
2023-01-10T10:54:36.421Z,4.2
2023-01-10T10:55:42.571Z,4.3
2023-01-10T10:56:49.032Z,4.3
2023-01-10T10:57:55.179Z,4.3
2023-01-10T10:59:01.388Z,4.3
2023-01-10T11:00:07.654Z,4.4
2023-01-10T11:01:13.951Z,4.3
2023-01-10T11:02:19.228Z,4.4
2023-01-10T11:03:24.514Z,4.4
2023-01-10T11:04:30.794Z,4.4
2023-01-10T11:05:37.070Z,4.3
2023-01-10T11:06:43.344Z,4.3
2023-01-10T11:07:48.636Z,4.3
2023-01-10T11:08:53.924Z,4.3
2023-01-10T11:10:00.194Z,4.3
2023-01-10T11:11:06.467Z,4.3
2023-01-10T11:12:12.736Z,4.2
2023-01-10T11:13:19.012Z,4.3
2023-01-10T11:14:25.283Z,4.3
2023-01-10T11:15:31.553Z,4.3
2023-01-10T11:16:37.829Z,4.2
2023-01-10T11:17:44.112Z,4.2
2023-01-10T11:19:56.647Z,4.2
2023-01-10T11:21:02.918Z,4.3
2023-01-10T11:22:09.183Z,4.3
2023-01-10T11:23:14.477Z,4.3
2023-01-10T11:24:20.748Z,4.3
2023-01-10T11:25:27.022Z,4.4
2023-01-10T11:26:33.294Z,4.4
2023-01-10T11:27:39.566Z,4.4
2023-01-10T11:28:45.839Z,4.4
2023-01-10T11:29:52.116Z,4.5
2023-01-10T11:30:58.385Z,4.5
2023-01-10T11:32:04.656Z,4.5
2023-01-10T11:33:10.930Z,4.5
2023-01-10T11:34:17.204Z,4.5
2023-01-10T11:35:23.485Z,4.5
2023-01-10T11:36:29.747Z,4.6
2023-01-10T11:37:35.031Z,4.6
2023-01-10T11:38:41.304Z,4.6
2023-01-10T11:39:47.583Z,4.6
2023-01-10T11:40:53.855Z,4.7
2023-01-10T11:42:00.133Z,4.7
2023-01-10T11:43:06.394Z,4.7
2023-01-10T11:44:12.656Z,4.7
2023-01-10T11:45:18.981Z,4.8
2023-01-10T11:46:25.298Z,4.7
2023-01-10T11:47:31.629Z,4.6
2023-01-10T11:48:37.897Z,4.6
2023-01-10T11:49:44.133Z,4.7
2023-01-10T11:50:50.329Z,4.7
2023-01-10T11:51:55.598Z,4.7
2023-01-10T11:53:01.876Z,4.7
2023-01-10T11:54:08.156Z,4.8
2023-01-10T11:55:14.403Z,4.7
2023-01-10T11:56:20.694Z,4.8
2023-01-10T11:57:26.961Z,4.8
2023-01-10T11:58:33.230Z,4.8
2023-01-10T11:59:38.530Z,4.8
2023-01-10T12:00:43.823Z,4.8
2023-01-10T12:01:49.104Z,4.8
2023-01-10T12:02:54.404Z,4.9
2023-01-10T12:04:00.667Z,4.9
2023-01-10T12:05:06.944Z,4.9
2023-01-10T12:06:13.219Z,4.9
2023-01-10T12:07:19.492Z,5
2023-01-10T12:09:32.036Z,5
2023-01-10T12:10:38.304Z,5.1
2023-01-10T12:11:44.580Z,5.1
2023-01-10T12:12:50.849Z,5.1
2023-01-10T12:13:57.131Z,5.1
2023-01-10T12:15:03.404Z,5.1
2023-01-10T12:16:09.665Z,5.1
2023-01-10T12:17:14.955Z,5.1
2023-01-10T12:18:21.231Z,5.1
2023-01-10T12:19:27.549Z,5.1
2023-01-10T12:20:33.768Z,5.1
2023-01-10T12:21:40.045Z,5.1
2023-01-10T12:22:46.322Z,5.1
2023-01-10T12:23:52.592Z,5.2
2023-01-10T12:24:58.858Z,5.2
2023-01-10T12:26:04.187Z,5.2
2023-01-10T12:27:09.447Z,5.2
2023-01-10T12:28:14.747Z,5.2
2023-01-10T12:29:20.040Z,5.2
2023-01-10T12:30:26.318Z,5.2
2023-01-10T12:31:32.609Z,5.2
2023-01-10T12:32:38.851Z,5.2
2023-01-10T12:33:45.120Z,5.2
2023-01-10T12:34:51.404Z,5.2
2023-01-10T12:35:57.681Z,5.2
2023-01-10T12:37:03.945Z,5.3
2023-01-10T12:38:10.219Z,5.3
2023-01-10T12:39:16.489Z,5.3
2023-01-10T12:40:22.766Z,5.3
2023-01-10T12:41:29.061Z,5.3
2023-01-10T12:42:35.307Z,5.2
2023-01-10T12:43:40.582Z,5.3
2023-01-10T12:44:46.861Z,5.3
2023-01-10T12:45:53.139Z,5.3
2023-01-10T12:46:59.412Z,5.3
2023-01-10T12:48:05.687Z,5.3
2023-01-10T12:49:11.950Z,5.2
2023-01-10T12:50:18.260Z,5.3
2023-01-10T12:51:23.528Z,5.3
2023-01-10T12:52:28.819Z,5.3
2023-01-10T12:53:34.114Z,5.3
2023-01-10T12:54:39.411Z,5.3
2023-01-10T12:55:45.681Z,5.3
2023-01-10T12:56:51.955Z,5.3
2023-01-10T12:59:04.501Z,5.3
2023-01-10T13:00:10.759Z,5.3
2023-01-10T13:01:17.030Z,5.3
2023-01-10T13:02:23.300Z,5.3
2023-01-10T13:03:29.577Z,5.4
2023-01-10T13:04:35.855Z,5.3
2023-01-10T13:05:42.121Z,5.3
2023-01-10T13:06:48.396Z,5.3
2023-01-10T13:07:54.670Z,5.3
2023-01-10T13:08:59.952Z,5.3
2023-01-10T13:10:06.219Z,5.3
2023-01-10T13:11:12.498Z,5.3
2023-01-10T13:12:18.779Z,5.3
2023-01-10T13:13:25.054Z,5.2
2023-01-10T13:14:31.314Z,5.2
2023-01-10T13:15:37.584Z,5.3
2023-01-10T13:16:43.857Z,5.3
2023-01-10T13:17:49.166Z,5.3
2023-01-10T13:18:54.448Z,5.3
2023-01-10T13:20:00.723Z,5.3
2023-01-10T13:21:06.048Z,5.3
2023-01-10T13:22:11.315Z,5.3
2023-01-10T13:23:17.577Z,5.3
2023-01-10T13:24:23.849Z,5.3
2023-01-10T13:25:30.118Z,5.3
2023-01-10T13:26:36.406Z,5.3
2023-01-10T13:27:42.675Z,5.3
2023-01-10T13:28:48.951Z,5.3
2023-01-10T13:29:55.275Z,5.3
2023-01-10T13:31:01.532Z,5.3
2023-01-10T13:32:07.856Z,5.3
2023-01-10T13:33:14.032Z,5.3
2023-01-10T13:34:20.540Z,5.3
2023-01-10T13:35:26.575Z,5.3
2023-01-10T13:36:31.872Z,5.3
2023-01-10T13:37:38.132Z,5.4
2023-01-10T13:38:44.406Z,5.4
2023-01-10T13:39:50.677Z,5.5
2023-01-10T13:40:56.957Z,5.5
2023-01-10T13:42:03.262Z,5.5
2023-01-10T13:43:09.503Z,5.5
2023-01-10T13:44:14.839Z,5.5
2023-01-10T13:45:20.084Z,5.6
2023-01-10T13:46:25.461Z,5.6
2023-01-10T13:47:30.685Z,5.7
2023-01-10T13:48:36.958Z,5.7
2023-01-10T13:49:43.208Z,5.7
2023-01-10T13:50:49.512Z,5.7
2023-01-10T13:51:55.754Z,5.8
2023-01-10T13:53:02.029Z,5.8
2023-01-10T13:54:08.331Z,5.9
2023-01-10T13:55:14.577Z,5.9
2023-01-10T13:56:20.850Z,5.9
2023-01-10T13:57:27.116Z,5.9
2023-01-10T13:58:33.393Z,5.9
2023-01-10T13:59:39.662Z,5.8
2023-01-10T14:00:45.948Z,5.9
2023-01-10T14:01:51.220Z,5.9
2023-01-10T14:02:57.496Z,5.9
2023-01-10T14:04:03.784Z,6
2023-01-10T14:05:10.031Z,5.9
2023-01-10T14:06:16.323Z,5.9
2023-01-10T14:07:22.604Z,5.9
2023-01-10T14:08:28.864Z,5.9
2023-01-10T14:09:34.158Z,5.8
2023-01-10T14:10:39.452Z,5.7
2023-01-10T14:11:44.738Z,5.7
2023-01-10T14:12:50.039Z,5.7
2023-01-10T14:13:56.310Z,5.7
2023-01-10T14:15:02.575Z,5.6
2023-01-10T14:16:08.858Z,5.6
2023-01-10T14:17:15.176Z,5.6
2023-01-10T14:18:21.404Z,5.6
2023-01-10T14:19:26.699Z,5.6
2023-01-10T14:20:33.040Z,5.6
2023-01-10T14:21:39.369Z,5.6
2023-01-10T14:22:45.599Z,5.7
2023-01-10T14:23:51.787Z,5.7
2023-01-10T14:24:58.085Z,5.7
2023-01-10T14:26:04.323Z,5.6
2023-01-10T14:27:10.589Z,5.6
2023-01-10T14:28:16.854Z,5.6
2023-01-10T14:29:23.135Z,5.6
2023-01-10T14:30:29.411Z,5.6
2023-01-10T14:31:35.692Z,5.6
2023-01-10T14:32:41.949Z,5.6
2023-01-10T14:33:47.235Z,5.6
2023-01-10T14:34:52.541Z,5.6
2023-01-10T14:35:57.828Z,5.6
2023-01-10T14:37:04.120Z,5.6
2023-01-10T14:38:10.372Z,5.5
2023-01-10T14:39:16.638Z,5.5
2023-01-10T14:40:22.920Z,5.5
2023-01-10T14:41:29.187Z,5.5
2023-01-10T14:42:35.463Z,5.4
2023-01-10T14:43:41.730Z,5.4
2023-01-10T14:44:48.006Z,5.4
2023-01-10T14:45:54.325Z,5.3
2023-01-10T14:47:00.549Z,5.3
2023-01-10T14:48:06.828Z,5.3
2023-01-10T14:49:13.121Z,5.3
2023-01-10T14:50:18.379Z,5.3
2023-01-10T14:51:24.652Z,5.3
2023-01-10T14:52:30.917Z,5.3
2023-01-10T14:53:37.290Z,5.3
2023-01-10T14:54:43.533Z,5.3
2023-01-10T14:55:49.772Z,5.3
2023-01-10T14:56:56.130Z,5.3
2023-01-10T14:58:01.315Z,5.3
2023-01-10T14:59:06.620Z,5.3
2023-01-10T15:00:12.872Z,5.3
2023-01-10T15:01:19.154Z,5.3
2023-01-10T15:02:25.429Z,5.2
2023-01-10T15:03:31.692Z,5.2
2023-01-10T15:04:37.962Z,5.2
2023-01-10T15:05:44.235Z,5.2
2023-01-10T15:06:50.514Z,5.2
2023-01-10T15:07:56.811Z,5.2
2023-01-10T15:09:03.069Z,5.1
2023-01-10T15:10:09.390Z,5.1
2023-01-10T15:11:15.718Z,5.1
2023-01-10T15:12:21.867Z,5.1
2023-01-10T15:13:27.184Z,5.1
2023-01-10T15:14:33.450Z,5.1
2023-01-10T15:15:39.698Z,5
2023-01-10T15:16:45.980Z,5
2023-01-10T15:17:52.256Z,5
2023-01-10T15:18:58.522Z,5
2023-01-10T15:20:04.792Z,5
2023-01-10T15:21:10.096Z,4.9
2023-01-10T15:22:15.382Z,4.9
2023-01-10T15:23:20.680Z,4.9
2023-01-10T15:24:25.990Z,4.9
2023-01-10T15:25:32.247Z,4.9
2023-01-10T15:26:38.571Z,4.8